Time;durP1;ratioP1;P1;durP2;ratioP2;P2;SDS_P1;SDS_P2;PMS_P1;PMS_P2;Temp;Humidity;BMP_temperature;BMP_pressure;BME280_temperature;BME280_humidity;BME280_pressure;Samples;Min_cycle;Max_cycle;Signal;HPM_P1;HPM_P2
2023/09/24 00:02:10;;;;;;;;;;;14.80;99.90;;;;;;4969954;28;19992;-64
2023/09/24 00:04:36;;;;;;;;;;;14.80;99.90;;;;;;4979730;28;19992;-64
2023/09/24 00:07:02;;;;;;;;;;;14.80;99.90;;;;;;4971682;28;19913;-64
2023/09/24 00:09:28;;;;;;;;;;;14.90;99.90;;;;;;4971391;28;20005;-65
2023/09/24 00:11:53;;;;;;;;;;;14.90;99.90;;;;;;4969787;28;19916;-64
2023/09/24 00:14:19;;;;;;;;;;;14.90;99.90;;;;;;4984688;28;20365;-65
2023/09/24 00:16:45;;;;;;;;;;;14.90;99.90;;;;;;4968368;28;19910;-65
2023/09/24 00:19:12;;;;;;;;;;;14.90;99.90;;;;;;4973195;28;20396;-63
2023/09/24 00:21:37;;;;;;;;;;;14.80;99.90;;;;;;4966554;28;20377;-64
2023/09/24 00:24:03;;;;;;;;;;;14.90;99.90;;;;;;4971821;28;19917;-65
2023/09/24 00:26:30;;;;;;;;;;;14.90;99.90;;;;;;4965686;28;19917;-64
2023/09/24 00:28:56;;;;;;;;;;;14.90;99.90;;;;;;4961324;28;19913;-65
2023/09/24 00:31:22;;;;;;;;;;;14.90;99.90;;;;;;4969102;28;19918;-65
2023/09/24 00:33:48;;;;;;;;;;;14.90;99.90;;;;;;4969886;28;19906;-64
2023/09/24 00:36:15;;;;;;;;;;;14.90;99.90;;;;;;4968554;28;19968;-65
2023/09/24 00:38:41;;;;;;;;;;;15.00;99.90;;;;;;4970189;28;19917;-65
2023/09/24 00:41:07;;;;;;;;;;;14.90;99.90;;;;;;4988863;28;19914;-64
2023/09/24 00:43:34;;;;;;;;;;;14.90;99.90;;;;;;4983556;28;19948;-63
2023/09/24 00:46:01;;;;;;;;;;;14.90;99.90;;;;;;4971044;28;19906;-64
2023/09/24 00:48:27;;;;;;;;;;;14.90;99.90;;;;;;4967337;28;19909;-64
2023/09/24 00:50:56;;;;;;;;;;;15.00;99.90;;;;;;4967123;28;19910;-64
2023/09/24 00:53:23;;;;;;;;;;;15.00;99.90;;;;;;4969977;28;19910;-65
2023/09/24 00:55:48;;;;;;;;;;;15.00;99.90;;;;;;4967701;28;19914;-64
2023/09/24 00:58:14;;;;;;;;;;;15.00;99.90;;;;;;4983417;28;20049;-64
2023/09/24 01:00:40;;;;;;;;;;;15.00;99.90;;;;;;4970398;28;20001;-64
2023/09/24 01:03:07;;;;;;;;;;;15.00;99.90;;;;;;4982164;28;19921;-64
2023/09/24 01:05:32;;;;;;;;;;;14.90;99.90;;;;;;4984653;28;19961;-64
2023/09/24 01:07:58;;;;;;;;;;;14.90;99.90;;;;;;4961554;28;19907;-66
2023/09/24 01:10:23;;;;;;;;;;;14.90;99.90;;;;;;4972751;28;19944;-64
2023/09/24 01:12:55;;;;;;;;;;;14.90;99.90;;;;;;4969975;28;19917;-65
2023/09/24 01:15:23;;;;;;;;;;;14.80;99.90;;;;;;4983184;28;19910;-64
2023/09/24 01:17:49;;;;;;;;;;;14.80;99.90;;;;;;4967228;28;19905;-64
2023/09/24 01:20:14;;;;;;;;;;;14.80;99.90;;;;;;4970189;28;19914;-65
2023/09/24 01:22:40;;;;;;;;;;;14.80;99.90;;;;;;4968913;28;19906;-65
2023/09/24 01:25:06;;;;;;;;;;;14.80;99.90;;;;;;4985742;28;19914;-63
2023/09/24 01:27:36;;;;;;;;;;;14.80;99.90;;;;;;4965852;28;19917;-64
2023/09/24 01:30:05;;;;;;;;;;;14.80;99.90;;;;;;4983219;28;19916;-64
2023/09/24 01:32:31;;;;;;;;;;;14.70;99.90;;;;;;4967749;28;19913;-64
2023/09/24 01:34:56;;;;;;;;;;;14.70;99.90;;;;;;4972757;28;19917;-65
2023/09/24 01:37:22;;;;;;;;;;;14.70;99.90;;;;;;4972746;28;19949;-65
2023/09/24 01:39:50;;;;;;;;;;;14.70;99.90;;;;;;4969031;28;20536;-64
2023/09/24 01:42:15;;;;;;;;;;;14.70;99.90;;;;;;4987833;28;19909;-63
2023/09/24 01:44:42;;;;;;;;;;;14.70;99.90;;;;;;4969388;28;21693;-64
2023/09/24 01:47:07;;;;;;;;;;;14.70;99.90;;;;;;4986557;28;19914;-65
2023/09/24 01:49:33;;;;;;;;;;;14.70;99.90;;;;;;4967920;28;19905;-64
2023/09/24 01:51:59;;;;;;;;;;;14.60;99.90;;;;;;4967506;28;19909;-64
2023/09/24 01:54:25;;;;;;;;;;;14.50;99.90;;;;;;4988182;28;19964;-64
2023/09/24 01:56:51;;;;;;;;;;;14.50;99.90;;;;;;4967659;28;20403;-65
2023/09/24 01:59:17;;;;;;;;;;;14.50;99.90;;;;;;4970164;28;20602;-64
2023/09/24 02:01:44;;;;;;;;;;;14.50;99.90;;;;;;4974032;28;19964;-64
2023/09/24 02:04:10;;;;;;;;;;;14.50;99.90;;;;;;4972247;28;19906;-64
2023/09/24 02:06:36;;;;;;;;;;;14.60;99.90;;;;;;4973201;28;19920;-63
2023/09/24 02:09:02;;;;;;;;;;;14.50;99.90;;;;;;4966390;28;19975;-65
2023/09/24 02:11:27;;;;;;;;;;;14.50;99.90;;;;;;4992759;28;19922;-66
2023/09/24 02:13:54;;;;;;;;;;;14.50;99.90;;;;;;4971572;28;19994;-64
2023/09/24 02:16:19;;;;;;;;;;;14.50;99.90;;;;;;4968672;28;19906;-64
2023/09/24 02:18:45;;;;;;;;;;;14.50;99.90;;;;;;4984868;28;19921;-65
2023/09/24 02:21:18;;;;;;;;;;;14.40;99.90;;;;;;4976705;28;20024;-64
2023/09/24 02:23:43;;;;;;;;;;;14.40;99.90;;;;;;4969447;28;19910;-64
2023/09/24 02:26:09;;;;;;;;;;;14.40;99.90;;;;;;4970938;28;19955;-64
2023/09/24 02:28:38;;;;;;;;;;;14.40;99.90;;;;;;4965873;28;19914;-63
2023/09/24 02:31:07;;;;;;;;;;;14.40;99.90;;;;;;4969717;28;19917;-64
2023/09/24 02:33:34;;;;;;;;;;;14.40;99.90;;;;;;4971167;28;19932;-65
2023/09/24 02:35:59;;;;;;;;;;;14.30;99.90;;;;;;4970805;28;19953;-64
2023/09/24 02:38:25;;;;;;;;;;;14.30;99.90;;;;;;4981404;28;20392;-64
2023/09/24 02:40:55;;;;;;;;;;;14.30;99.90;;;;;;4975385;28;19913;-64
2023/09/24 02:43:22;;;;;;;;;;;14.30;99.90;;;;;;4972552;28;19906;-64
2023/09/24 02:45:48;;;;;;;;;;;14.30;99.90;;;;;;4968487;28;20316;-64
2023/09/24 02:48:14;;;;;;;;;;;14.30;99.90;;;;;;4970080;28;19914;-64
2023/09/24 02:50:39;;;;;;;;;;;14.30;99.90;;;;;;4970395;28;19906;-64
2023/09/24 02:53:08;;;;;;;;;;;14.30;99.90;;;;;;4983725;28;20519;-64
2023/09/24 02:55:36;;;;;;;;;;;14.20;99.90;;;;;;4984879;28;20341;-64
2023/09/24 02:58:04;;;;;;;;;;;14.20;99.90;;;;;;4980327;28;19910;-64
2023/09/24 03:00:41;;;;;;;;;;;14.20;99.90;;;;;;4967662;28;19905;-64
2023/09/24 03:03:09;;;;;;;;;;;14.20;99.90;;;;;;4991015;28;20053;-64
2023/09/24 03:05:35;;;;;;;;;;;14.20;99.90;;;;;;4972797;28;19917;-64
2023/09/24 03:08:02;;;;;;;;;;;14.20;99.90;;;;;;4972769;28;20289;-63
2023/09/24 03:10:29;;;;;;;;;;;14.20;99.90;;;;;;4986288;28;19913;-64
2023/09/24 03:12:55;;;;;;;;;;;14.20;99.90;;;;;;4974412;28;19953;-63
2023/09/24 03:15:21;;;;;;;;;;;14.20;99.90;;;;;;4975790;28;19956;-64
2023/09/24 03:17:46;;;;;;;;;;;14.20;99.90;;;;;;4982103;28;19933;-64
2023/09/24 03:20:15;;;;;;;;;;;14.20;99.90;;;;;;4968931;28;19920;-65
2023/09/24 03:22:48;;;;;;;;;;;14.20;99.90;;;;;;4963476;28;20572;-64
2023/09/24 03:25:17;;;;;;;;;;;14.10;99.90;;;;;;4973061;28;20000;-65
2023/09/24 03:27:43;;;;;;;;;;;14.10;99.90;;;;;;4960647;28;19913;-64
2023/09/24 03:30:09;;;;;;;;;;;14.10;99.90;;;;;;4969575;28;19956;-64
2023/09/24 03:32:36;;;;;;;;;;;14.10;99.90;;;;;;4970328;28;19914;-65
2023/09/24 03:35:03;;;;;;;;;;;14.00;99.90;;;;;;4968867;28;20282;-64
2023/09/24 03:37:29;;;;;;;;;;;14.00;99.90;;;;;;4970286;28;20316;-64
2023/09/24 03:39:54;;;;;;;;;;;14.10;99.90;;;;;;4968281;28;19906;-64
2023/09/24 03:42:20;;;;;;;;;;;14.00;99.90;;;;;;4972856;28;20009;-64
2023/09/24 03:44:45;;;;;;;;;;;14.00;99.90;;;;;;4977086;28;19909;-63
2023/09/24 03:47:11;;;;;;;;;;;14.00;99.90;;;;;;4990075;28;19982;-63
2023/09/24 03:49:37;;;;;;;;;;;14.10;99.90;;;;;;4971016;28;19920;-64
2023/09/24 03:52:02;;;;;;;;;;;14.10;99.90;;;;;;4963854;28;19913;-63
2023/09/24 03:54:28;;;;;;;;;;;14.10;99.90;;;;;;4970340;28;19910;-64
2023/09/24 03:56:54;;;;;;;;;;;14.10;99.90;;;;;;4969840;28;19910;-65
2023/09/24 03:59:19;;;;;;;;;;;14.10;99.90;;;;;;4964836;28;19910;-64
2023/09/24 04:01:45;;;;;;;;;;;14.10;99.90;;;;;;4972573;28;19910;-64
2023/09/24 04:04:12;;;;;;;;;;;14.10;99.90;;;;;;4965715;28;19917;-65
2023/09/24 04:06:38;;;;;;;;;;;14.10;99.90;;;;;;4972814;28;20008;-63
2023/09/24 04:09:04;;;;;;;;;;;14.10;99.90;;;;;;4968519;28;20402;-64
2023/09/24 04:11:30;;;;;;;;;;;14.10;99.90;;;;;;4968451;28;19913;-65
2023/09/24 04:13:55;;;;;;;;;;;14.10;99.90;;;;;;4967327;28;19936;-64
2023/09/24 04:16:22;;;;;;;;;;;14.00;99.90;;;;;;4983244;28;20447;-64
2023/09/24 04:18:48;;;;;;;;;;;14.10;99.90;;;;;;4966173;28;19917;-64
2023/09/24 04:21:17;;;;;;;;;;;14.10;99.90;;;;;;4968991;28;20282;-64
2023/09/24 04:23:43;;;;;;;;;;;14.10;99.90;;;;;;4996208;28;19914;-63
2023/09/24 04:26:16;;;;;;;;;;;14.00;99.90;;;;;;4969382;28;19937;-63
2023/09/24 04:28:42;;;;;;;;;;;14.10;99.90;;;;;;4958929;28;19914;-63
2023/09/24 04:31:07;;;;;;;;;;;14.10;99.90;;;;;;4968624;28;20293;-64
2023/09/24 04:33:34;;;;;;;;;;;14.10;99.90;;;;;;4968398;28;20412;-63
2023/09/24 04:35:59;;;;;;;;;;;14.10;99.90;;;;;;4969610;28;20435;-65
2023/09/24 04:38:27;;;;;;;;;;;14.10;99.90;;;;;;4969777;28;19906;-66
2023/09/24 04:40:52;;;;;;;;;;;14.20;99.90;;;;;;4977904;28;19906;-65
2023/09/24 04:43:18;;;;;;;;;;;14.10;99.90;;;;;;4969153;28;19910;-65
2023/09/24 04:45:44;;;;;;;;;;;14.10;99.90;;;;;;4984717;28;19914;-64
2023/09/24 04:48:09;;;;;;;;;;;14.10;99.90;;;;;;4965896;28;19909;-64
2023/09/24 04:50:35;;;;;;;;;;;14.10;99.90;;;;;;4969979;28;21329;-64
2023/09/24 04:53:01;;;;;;;;;;;14.10;99.90;;;;;;4967743;28;20669;-64
2023/09/24 04:55:26;;;;;;;;;;;14.10;99.90;;;;;;4974853;28;20419;-64
2023/09/24 04:57:53;;;;;;;;;;;14.20;99.90;;;;;;4971198;28;19996;-64
2023/09/24 05:00:18;;;;;;;;;;;14.20;99.90;;;;;;4967917;28;20636;-62
2023/09/24 05:02:44;;;;;;;;;;;14.20;99.90;;;;;;4971573;28;20004;-63
2023/09/24 05:05:10;;;;;;;;;;;14.30;99.90;;;;;;4974925;28;19910;-62
2023/09/24 05:07:35;;;;;;;;;;;14.30;99.90;;;;;;4974626;28;19976;-64
2023/09/24 05:10:01;;;;;;;;;;;14.30;99.90;;;;;;4967806;28;19968;-62
2023/09/24 05:12:27;;;;;;;;;;;14.30;99.90;;;;;;4972972;28;19905;-62
2023/09/24 05:14:52;;;;;;;;;;;14.30;99.90;;;;;;4971516;28;19922;-63
2023/09/24 05:17:18;;;;;;;;;;;14.30;99.90;;;;;;4976404;28;19919;-63
2023/09/24 05:19:43;;;;;;;;;;;14.30;99.90;;;;;;4971661;28;20293;-62
2023/09/24 05:22:09;;;;;;;;;;;14.30;99.90;;;;;;4970415;28;20353;-63
2023/09/24 05:24:34;;;;;;;;;;;14.30;99.90;;;;;;4970711;28;19921;-62
2023/09/24 05:27:00;;;;;;;;;;;14.30;99.90;;;;;;4968076;28;19912;-65
2023/09/24 05:29:26;;;;;;;;;;;14.30;99.90;;;;;;4981972;28;19909;-63
2023/09/24 05:31:51;;;;;;;;;;;14.30;99.90;;;;;;4971484;28;19918;-62
2023/09/24 05:34:17;;;;;;;;;;;14.30;99.90;;;;;;4974651;28;20524;-63
2023/09/24 05:36:42;;;;;;;;;;;14.30;99.90;;;;;;4987908;28;20301;-62
2023/09/24 05:39:09;;;;;;;;;;;14.30;99.90;;;;;;4967296;28;20384;-64
2023/09/24 05:41:35;;;;;;;;;;;14.30;99.90;;;;;;4975097;28;20525;-64
2023/09/24 05:44:04;;;;;;;;;;;14.40;99.90;;;;;;4970866;28;19910;-66
2023/09/24 05:46:30;;;;;;;;;;;14.40;99.90;;;;;;4973630;28;19912;-66
2023/09/24 05:48:56;;;;;;;;;;;14.40;99.90;;;;;;4971523;28;20492;-63
2023/09/24 05:51:22;;;;;;;;;;;14.40;99.90;;;;;;4968721;28;19910;-65
2023/09/24 05:53:48;;;;;;;;;;;14.40;99.90;;;;;;4969121;28;20659;-65
2023/09/24 05:56:13;;;;;;;;;;;14.40;99.90;;;;;;4972048;28;20381;-64
2023/09/24 05:58:39;;;;;;;;;;;14.40;99.90;;;;;;4963970;28;19914;-63
2023/09/24 06:01:04;;;;;;;;;;;14.40;99.90;;;;;;4972021;28;19917;-64
2023/09/24 06:03:30;;;;;;;;;;;14.50;99.90;;;;;;4983047;28;20397;-65
2023/09/24 06:05:56;;;;;;;;;;;14.50;99.90;;;;;;4973996;28;19916;-64
2023/09/24 06:08:21;;;;;;;;;;;14.50;99.90;;;;;;4968030;28;19914;-65
2023/09/24 06:10:47;;;;;;;;;;;14.60;99.90;;;;;;4972251;28;19936;-64
2023/09/24 06:13:16;;;;;;;;;;;14.70;99.90;;;;;;4972694;28;20028;-63
2023/09/24 06:15:42;;;;;;;;;;;14.70;99.90;;;;;;4970193;28;19923;-64
2023/09/24 06:18:08;;;;;;;;;;;14.70;99.90;;;;;;4971015;28;19917;-64
2023/09/24 06:20:37;;;;;;;;;;;14.70;99.90;;;;;;4968801;28;19920;-65
2023/09/24 06:23:03;;;;;;;;;;;14.80;99.90;;;;;;4968600;28;20377;-64
2023/09/24 06:25:28;;;;;;;;;;;14.80;99.90;;;;;;4975958;28;19956;-65
2023/09/24 06:27:54;;;;;;;;;;;14.80;99.90;;;;;;4980621;28;19910;-64
2023/09/24 06:30:19;;;;;;;;;;;14.90;99.90;;;;;;4990016;28;20443;-64
2023/09/24 06:32:45;;;;;;;;;;;14.90;99.90;;;;;;4981009;28;19914;-65
2023/09/24 06:35:11;;;;;;;;;;;15.10;99.90;;;;;;4967644;28;19924;-65
2023/09/24 06:37:36;;;;;;;;;;;15.10;99.90;;;;;;4970957;28;19914;-63
2023/09/24 06:40:02;;;;;;;;;;;15.10;99.90;;;;;;4970175;28;19910;-64
2023/09/24 06:42:28;;;;;;;;;;;15.00;99.90;;;;;;4989392;28;19909;-64
2023/09/24 06:44:54;;;;;;;;;;;15.10;99.90;;;;;;4969086;28;19913;-64
2023/09/24 06:47:19;;;;;;;;;;;15.20;99.90;;;;;;4966300;28;20360;-65
2023/09/24 06:49:49;;;;;;;;;;;15.20;99.90;;;;;;4968979;28;19910;-65
2023/09/24 06:52:15;;;;;;;;;;;15.30;99.90;;;;;;4964565;28;19941;-65
2023/09/24 06:54:40;;;;;;;;;;;15.40;99.90;;;;;;4971164;28;20012;-64
2023/09/24 06:57:06;;;;;;;;;;;15.40;99.90;;;;;;4967069;28;19917;-64
2023/09/24 06:59:31;;;;;;;;;;;15.40;99.90;;;;;;4982870;28;20016;-65
2023/09/24 07:01:57;;;;;;;;;;;15.50;99.90;;;;;;4974032;28;20366;-64
2023/09/24 07:04:22;;;;;;;;;;;15.50;99.90;;;;;;4968108;28;20118;-64
2023/09/24 07:06:50;;;;;;;;;;;15.60;99.90;;;;;;4987246;28;19910;-64
2023/09/24 07:09:16;;;;;;;;;;;15.60;99.90;;;;;;4964924;28;19906;-65
2023/09/24 07:11:41;;;;;;;;;;;15.70;99.90;;;;;;4973648;28;19910;-65
2023/09/24 07:14:07;;;;;;;;;;;15.40;99.90;;;;;;4970469;28;19930;-63
2023/09/24 07:16:34;;;;;;;;;;;15.30;99.90;;;;;;4970896;28;20349;-64
2023/09/24 07:19:00;;;;;;;;;;;15.40;99.90;;;;;;4970637;28;19906;-67
2023/09/24 07:21:28;;;;;;;;;;;15.60;99.90;;;;;;4968723;28;19906;-64
2023/09/24 07:23:57;;;;;;;;;;;15.70;99.90;;;;;;4966148;28;20009;-64
2023/09/24 07:26:23;;;;;;;;;;;15.70;99.90;;;;;;4971491;28;20485;-64
2023/09/24 07:28:49;;;;;;;;;;;15.70;99.90;;;;;;4967458;28;19975;-65
2023/09/24 07:31:16;;;;;;;;;;;15.80;99.90;;;;;;4970238;28;19917;-65
2023/09/24 07:33:42;;;;;;;;;;;15.60;99.90;;;;;;4964594;28;20095;-64
2023/09/24 07:36:08;;;;;;;;;;;15.60;99.90;;;;;;4970753;28;19921;-65
2023/09/24 07:38:34;;;;;;;;;;;15.60;99.90;;;;;;4970885;28;19910;-64
2023/09/24 07:41:00;;;;;;;;;;;15.60;99.90;;;;;;4971287;28;19917;-65
2023/09/24 07:43:25;;;;;;;;;;;15.60;99.90;;;;;;4973012;28;19910;-64
2023/09/24 07:45:51;;;;;;;;;;;15.60;99.90;;;;;;4971437;28;19980;-64
2023/09/24 07:48:16;;;;;;;;;;;15.70;99.90;;;;;;4963954;28;19936;-65
2023/09/24 07:50:49;;;;;;;;;;;15.70;99.90;;;;;;4971723;28;19933;-65
2023/09/24 07:53:15;;;;;;;;;;;15.80;99.90;;;;;;4978754;28;20280;-65
2023/09/24 07:55:41;;;;;;;;;;;15.80;99.90;;;;;;4968382;28;19921;-64
2023/09/24 07:58:06;;;;;;;;;;;15.80;99.90;;;;;;4964406;28;19949;-64
2023/09/24 08:00:32;;;;;;;;;;;15.90;99.90;;;;;;4973263;28;19909;-64
2023/09/24 08:02:57;;;;;;;;;;;16.00;99.90;;;;;;4971138;28;19914;-65
2023/09/24 08:05:23;;;;;;;;;;;16.10;99.90;;;;;;4975217;28;20584;-65
2023/09/24 08:07:48;;;;;;;;;;;16.10;99.90;;;;;;4970299;28;19928;-65
2023/09/24 08:10:14;;;;;;;;;;;16.10;99.90;;;;;;4966305;28;19905;-64
2023/09/24 08:12:39;;;;;;;;;;;16.20;99.90;;;;;;4989756;28;19906;-64
2023/09/24 08:15:05;;;;;;;;;;;16.30;99.90;;;;;;4981851;28;20021;-65
2023/09/24 08:17:31;;;;;;;;;;;16.30;99.90;;;;;;4984929;28;19971;-66
2023/09/24 08:19:56;;;;;;;;;;;16.30;99.90;;;;;;4966597;28;19960;-65
2023/09/24 08:22:23;;;;;;;;;;;16.40;99.90;;;;;;4983234;28;20504;-65
2023/09/24 08:24:48;;;;;;;;;;;16.60;99.90;;;;;;4968287;28;20380;-65
2023/09/24 08:27:14;;;;;;;;;;;16.60;99.90;;;;;;4966757;28;19944;-65
2023/09/24 08:29:39;;;;;;;;;;;16.60;99.90;;;;;;4970341;28;19910;-65
2023/09/24 08:32:05;;;;;;;;;;;16.60;99.90;;;;;;4973468;28;19948;-64
2023/09/24 08:34:31;;;;;;;;;;;16.60;99.90;;;;;;4975025;28;19913;-65
2023/09/24 08:36:57;;;;;;;;;;;16.60;99.90;;;;;;4989938;28;19933;-66
2023/09/24 08:39:22;;;;;;;;;;;16.60;99.90;;;;;;4971265;28;19910;-64
2023/09/24 08:41:48;;;;;;;;;;;16.50;99.90;;;;;;4977846;28;20386;-65
2023/09/24 08:44:16;;;;;;;;;;;16.40;99.90;;;;;;4967605;28;20103;-65
2023/09/24 08:46:42;;;;;;;;;;;16.40;99.90;;;;;;4973328;28;20307;-65
2023/09/24 08:49:08;;;;;;;;;;;16.40;99.90;;;;;;4970967;28;20450;-64
2023/09/24 08:51:34;;;;;;;;;;;16.40;99.90;;;;;;4970829;28;19953;-65
2023/09/24 08:54:00;;;;;;;;;;;16.40;99.90;;;;;;4972919;28;19910;-65
2023/09/24 08:56:26;;;;;;;;;;;16.40;99.90;;;;;;4975851;28;19910;-64
2023/09/24 08:58:53;;;;;;;;;;;16.40;99.90;;;;;;4981848;28;20352;-65
2023/09/24 09:01:18;;;;;;;;;;;16.40;99.90;;;;;;4970389;28;19933;-64
2023/09/24 09:03:44;;;;;;;;;;;16.40;99.90;;;;;;4971780;28;19910;-65
2023/09/24 09:06:10;;;;;;;;;;;16.40;99.90;;;;;;4974396;28;19909;-64
2023/09/24 09:08:52;;;;;;;;;;;16.40;99.90;;;;;;4972019;28;19920;-64
2023/09/24 09:11:19;;;;;;;;;;;16.40;99.90;;;;;;4969112;28;19913;-65
2023/09/24 09:13:48;;;;;;;;;;;16.30;99.90;;;;;;4975091;28;19945;-64
2023/09/24 09:16:16;;;;;;;;;;;16.20;99.90;;;;;;4972309;28;19918;-66
2023/09/24 09:18:42;;;;;;;;;;;16.10;99.90;;;;;;4971853;28;21164;-64
2023/09/24 09:21:07;;;;;;;;;;;16.10;99.90;;;;;;4971063;28;19951;-65
2023/09/24 09:23:44;;;;;;;;;;;16.10;99.90;;;;;;4988263;28;19914;-64
2023/09/24 09:26:10;;;;;;;;;;;16.00;99.90;;;;;;4983859;28;20092;-64
2023/09/24 09:28:35;;;;;;;;;;;16.10;99.90;;;;;;4969760;28;20220;-64
2023/09/24 09:31:08;;;;;;;;;;;16.10;99.90;;;;;;4971739;28;20314;-65
2023/09/24 09:33:34;;;;;;;;;;;16.10;99.90;;;;;;4970739;28;19913;-66
2023/09/24 09:36:00;;;;;;;;;;;16.10;99.90;;;;;;4969850;28;19914;-64
2023/09/24 09:38:27;;;;;;;;;;;16.10;99.90;;;;;;4971048;28;20401;-64
2023/09/24 09:40:59;;;;;;;;;;;16.20;99.90;;;;;;4975429;28;20124;-65
2023/09/24 09:43:25;;;;;;;;;;;16.10;99.90;;;;;;4972756;28;20104;-64
2023/09/24 09:45:53;;;;;;;;;;;16.00;99.90;;;;;;4983603;28;20796;-65
2023/09/24 09:48:25;;;;;;;;;;;16.00;99.90;;;;;;4968706;28;20008;-65
2023/09/24 09:50:51;;;;;;;;;;;16.20;99.90;;;;;;4970378;28;20435;-65
2023/09/24 09:53:21;;;;;;;;;;;16.20;99.90;;;;;;4966872;28;20291;-64
2023/09/24 09:55:47;;;;;;;;;;;16.30;99.90;;;;;;4983559;28;19914;-64
2023/09/24 09:58:14;;;;;;;;;;;16.30;99.90;;;;;;4969081;28;19969;-64
2023/09/24 10:00:39;;;;;;;;;;;16.30;99.90;;;;;;4967245;28;19910;-64
2023/09/24 10:03:06;;;;;;;;;;;16.30;99.90;;;;;;4971872;28;20286;-66
2023/09/24 10:05:32;;;;;;;;;;;16.40;99.90;;;;;;4973641;28;20360;-64
2023/09/24 10:07:57;;;;;;;;;;;16.40;99.90;;;;;;4967437;28;19965;-64
2023/09/24 10:10:32;;;;;;;;;;;16.50;99.90;;;;;;4973258;28;19910;-64
2023/09/24 10:12:59;;;;;;;;;;;16.60;99.90;;;;;;4971328;28;20817;-63
2023/09/24 10:15:27;;;;;;;;;;;16.60;99.90;;;;;;4967756;28;19910;-65
2023/09/24 10:18:11;;;;;;;;;;;16.60;99.90;;;;;;4970139;28;21094;-65
2023/09/24 10:20:49;;;;;;;;;;;16.70;99.90;;;;;;4982891;28;21177;-65
2023/09/24 10:23:35;;;;;;;;;;;16.80;99.90;;;;;;4967998;28;19992;-66
2023/09/24 10:26:03;;;;;;;;;;;16.90;99.90;;;;;;4973843;28;19917;-66
2023/09/24 10:28:47;;;;;;;;;;;17.00;99.90;;;;;;4967934;28;19921;-66
2023/09/24 10:31:13;;;;;;;;;;;17.10;99.90;;;;;;4975506;28;19957;-66
2023/09/24 10:33:48;;;;;;;;;;;17.10;99.90;;;;;;4968028;28;20409;-66
2023/09/24 10:36:28;;;;;;;;;;;17.10;99.90;;;;;;4971844;28;19924;-65
2023/09/24 10:39:08;;;;;;;;;;;17.10;99.90;;;;;;4967114;28;19914;-66
2023/09/24 10:41:35;;;;;;;;;;;17.00;99.90;;;;;;4974711;28;20003;-67
2023/09/24 10:44:30;;;;;;;;;;;16.80;99.90;;;;;;4968646;28;19928;-65
2023/09/24 10:46:55;;;;;;;;;;;16.80;99.90;;;;;;4955900;28;19913;-66
2023/09/24 10:49:24;;;;;;;;;;;16.60;99.90;;;;;;4972009;28;20325;-66
2023/09/24 10:51:59;;;;;;;;;;;16.70;99.90;;;;;;4982016;28;19910;-66
2023/09/24 10:54:25;;;;;;;;;;;16.80;99.90;;;;;;4965395;28;19913;-66
2023/09/24 10:56:50;;;;;;;;;;;16.90;99.90;;;;;;4992054;28;20419;-66
2023/09/24 10:59:16;;;;;;;;;;;17.10;99.90;;;;;;4961574;28;19910;-66
2023/09/24 11:01:42;;;;;;;;;;;17.00;99.90;;;;;;4972144;28;20020;-66
2023/09/24 11:04:11;;;;;;;;;;;17.10;99.90;;;;;;4970366;28;19905;-66
2023/09/24 11:06:37;;;;;;;;;;;17.20;99.90;;;;;;4973738;28;19973;-66
2023/09/24 11:09:17;;;;;;;;;;;17.10;99.90;;;;;;5053650;27;19913;-68
2023/09/24 11:11:42;;;;;;;;;;;17.10;99.90;;;;;;5036209;28;19920;-67
2023/09/24 11:14:15;;;;;;;;;;;17.20;99.90;;;;;;5034622;28;19916;-67
2023/09/24 11:16:41;;;;;;;;;;;17.10;99.90;;;;;;5041645;28;19916;-67
2023/09/24 11:19:11;;;;;;;;;;;17.20;99.90;;;;;;5036830;28;19917;-66
2023/09/24 11:21:38;;;;;;;;;;;17.30;99.90;;;;;;5039477;28;19916;-68
2023/09/24 11:24:19;;;;;;;;;;;17.40;99.90;;;;;;5041182;28;19913;-67
2023/09/24 11:26:58;;;;;;;;;;;17.50;99.90;;;;;;5043012;28;19913;-68
2023/09/24 11:29:24;;;;;;;;;;;17.60;99.90;;;;;;5043936;28;19913;-69
2023/09/24 11:31:49;;;;;;;;;;;17.60;99.90;;;;;;5039609;28;19917;-68
2023/09/24 11:34:21;;;;;;;;;;;17.70;99.90;;;;;;5036871;28;19924;-68
2023/09/24 11:36:55;;;;;;;;;;;17.70;99.90;;;;;;5041060;28;20011;-67
2023/09/24 11:39:20;;;;;;;;;;;17.80;99.90;;;;;;5039873;28;19913;-67
2023/09/24 11:41:46;;;;;;;;;;;17.80;99.90;;;;;;5030618;28;19916;-68
2023/09/24 11:44:12;;;;;;;;;;;17.90;99.90;;;;;;5023395;28;20083;-67
2023/09/24 11:46:38;;;;;;;;;;;17.80;99.90;;;;;;5013301;28;19913;-67
2023/09/24 11:49:04;;;;;;;;;;;17.80;99.90;;;;;;5016620;28;19983;-67
2023/09/24 11:51:30;;;;;;;;;;;17.90;99.90;;;;;;5022713;28;19913;-66
2023/09/24 11:53:56;;;;;;;;;;;18.00;99.90;;;;;;5016273;28;19913;-67
2023/09/24 11:56:22;;;;;;;;;;;18.10;99.90;;;;;;5019450;28;19988;-67
2023/09/24 11:58:48;;;;;;;;;;;18.20;99.90;;;;;;5022205;28;19909;-67
2023/09/24 12:01:14;;;;;;;;;;;18.40;99.90;;;;;;5014350;28;20319;-67
2023/09/24 12:03:42;;;;;;;;;;;18.70;99.90;;;;;;5017504;28;19910;-66
2023/09/24 12:06:08;;;;;;;;;;;18.90;99.90;;;;;;5022616;28;19963;-65
2023/09/24 12:08:34;;;;;;;;;;;19.20;99.90;;;;;;5017933;28;19964;-66
2023/09/24 12:10:59;;;;;;;;;;;19.30;99.90;;;;;;5011768;28;19920;-66
2023/09/24 12:13:25;;;;;;;;;;;19.10;99.90;;;;;;5010243;28;19909;-66
2023/09/24 12:15:51;;;;;;;;;;;19.10;99.90;;;;;;5020752;28;20755;-66
2023/09/24 12:18:16;;;;;;;;;;;19.00;99.90;;;;;;5015685;28;19992;-68
2023/09/24 12:20:43;;;;;;;;;;;19.00;99.90;;;;;;5003966;28;19999;-65
2023/09/24 12:23:10;;;;;;;;;;;19.00;99.90;;;;;;5004735;28;20212;-67
2023/09/24 12:25:36;;;;;;;;;;;19.20;99.90;;;;;;5004275;28;20299;-68
2023/09/24 12:28:13;;;;;;;;;;;18.90;99.90;;;;;;5003753;28;19923;-67
2023/09/24 12:30:39;;;;;;;;;;;18.50;99.90;;;;;;5007837;28;19920;-68
2023/09/24 12:33:05;;;;;;;;;;;18.60;99.90;;;;;;5004823;28;19922;-66
2023/09/24 12:35:30;;;;;;;;;;;18.80;99.90;;;;;;5003639;28;19924;-66
2023/09/24 12:37:56;;;;;;;;;;;19.10;99.90;;;;;;5000907;28;19972;-65
2023/09/24 12:40:22;;;;;;;;;;;19.40;99.90;;;;;;5002504;28;20459;-66
2023/09/24 12:42:48;;;;;;;;;;;19.30;99.90;;;;;;4997095;28;19913;-66
2023/09/24 12:45:14;;;;;;;;;;;19.50;99.90;;;;;;5005417;28;19921;-66
2023/09/24 12:47:40;;;;;;;;;;;19.70;99.90;;;;;;4999414;28;19940;-66
2023/09/24 12:50:07;;;;;;;;;;;19.90;99.90;;;;;;5003531;28;19917;-66
2023/09/24 12:52:33;;;;;;;;;;;19.90;99.90;;;;;;5005015;28;19913;-66
2023/09/24 12:55:00;;;;;;;;;;;20.00;99.90;;;;;;5004404;28;20375;-67
2023/09/24 12:57:25;;;;;;;;;;;19.50;99.90;;;;;;5006958;28;19909;-67
2023/09/24 12:59:51;;;;;;;;;;;19.60;99.90;;;;;;5007964;28;19917;-66
2023/09/24 13:02:17;;;;;;;;;;;19.90;99.90;;;;;;5001533;28;19963;-66
2023/09/24 13:04:44;;;;;;;;;;;20.00;99.70;;;;;;5004068;28;19924;-66
2023/09/24 13:07:10;;;;;;;;;;;20.20;99.50;;;;;;5004093;28;19922;-68
2023/09/24 13:09:36;;;;;;;;;;;19.80;99.60;;;;;;5003144;28;19925;-68
2023/09/24 13:12:03;;;;;;;;;;;19.90;99.30;;;;;;5003115;28;19910;-66
2023/09/24 13:14:30;;;;;;;;;;;19.60;99.20;;;;;;4999776;28;20377;-65
2023/09/24 13:16:56;;;;;;;;;;;19.50;99.50;;;;;;5002869;28;20353;-67
2023/09/24 13:19:22;;;;;;;;;;;19.40;99.70;;;;;;4999924;28;20380;-67
2023/09/24 13:21:49;;;;;;;;;;;19.40;99.90;;;;;;5004545;28;19928;-66
2023/09/24 13:24:14;;;;;;;;;;;19.50;99.90;;;;;;5000764;28;19918;-66
2023/09/24 13:26:42;;;;;;;;;;;19.60;99.90;;;;;;5002411;28;19943;-67
2023/09/24 13:29:08;;;;;;;;;;;19.60;99.70;;;;;;5001998;28;20383;-67
2023/09/24 13:31:34;;;;;;;;;;;19.60;99.90;;;;;;5001619;28;19967;-67
2023/09/24 13:34:03;;;;;;;;;;;19.70;99.60;;;;;;5000901;28;19948;-67
2023/09/24 13:36:39;;;;;;;;;;;19.40;99.70;;;;;;4998564;28;20519;-67
2023/09/24 13:39:05;;;;;;;;;;;19.50;99.80;;;;;;4999886;28;19913;-67
2023/09/24 13:41:31;;;;;;;;;;;19.60;99.70;;;;;;4992450;28;20004;-67
2023/09/24 13:43:57;;;;;;;;;;;19.50;99.60;;;;;;4998166;28;20015;-68
2023/09/24 13:46:25;;;;;;;;;;;19.50;99.20;;;;;;5001850;28;19913;-66
2023/09/24 13:48:53;;;;;;;;;;;19.40;99.40;;;;;;4998478;28;19917;-64
2023/09/24 13:51:19;;;;;;;;;;;19.50;99.60;;;;;;4999251;28;20008;-67
2023/09/24 13:53:49;;;;;;;;;;;19.50;99.20;;;;;;5002945;28;20002;-67
2023/09/24 13:56:15;;;;;;;;;;;19.20;99.20;;;;;;5035558;28;19994;-66
2023/09/24 13:58:41;;;;;;;;;;;19.00;99.70;;;;;;5001971;28;19918;-67
2023/09/24 14:01:10;;;;;;;;;;;19.10;99.40;;;;;;5001595;28;19917;-66
2023/09/24 14:03:36;;;;;;;;;;;19.30;99.50;;;;;;5008308;28;20004;-66
2023/09/24 14:06:03;;;;;;;;;;;19.30;99.40;;;;;;5000807;28;20463;-67
2023/09/24 14:14:11;;;;;;;;;;;19.40;98.90;;;;;;5001837;28;19935;-66
2023/09/24 14:16:38;;;;;;;;;;;19.30;99.10;;;;;;5003738;28;20551;-66
2023/09/24 14:19:08;;;;;;;;;;;19.20;99.30;;;;;;5002180;28;19920;-66
2023/09/24 14:21:35;;;;;;;;;;;19.00;99.90;;;;;;5000907;28;19913;-66